Orbital elements of FENGYUN 1C DEB
| Launched | 9 May 1999 |
| Flight ended | – |
| Launch site | Taiyuan Space Center, PRC |
| Owner | People's Republic of China |
| NORAD ID | 29767 |
| Date fetched |
Epoch osculation |
Inc. [°] |
Ecc. | RA asc node [hr] |
Arg Peri. [°] |
Mean anom [°] |
Mean motion [rev/day] |
Abs. mag |
| Date fetched |
Epoch osculation |
Inc. [°] |
Ecc. | RA asc node [hr] |
Arg Peri. [°] |
Mean anom [°] |
Mean motion [rev/day] |
Abs. mag |
| 2026 May 05 17:57 | 2026 May 05 08:30:59 | 98.2119 | 0.03278 | 5.6991 | 11.9474 | 139.7222 | 14.04852 | – |
| 2026 May 04 17:57 | 2026 Apr 30 13:31:05 | 98.2117 | 0.03286 | 5.4093 | 25.5433 | 139.7222 | 14.04852 | – |
| 2026 May 03 17:57 | 2026 Apr 30 13:31:05 | 98.2117 | 0.03286 | 5.4093 | 25.5433 | 139.7222 | 14.04852 | – |
| 2026 May 02 17:57 | 2026 Apr 30 13:31:05 | 98.2117 | 0.03286 | 5.4093 | 25.5433 | 139.7222 | 14.04852 | – |
| 2026 May 01 17:56 | 2026 Apr 30 13:31:05 | 98.2117 | 0.03286 | 5.4093 | 25.5433 | 139.7222 | 14.04852 | – |
| 2026 Apr 30 17:56 | 2026 Apr 30 13:31:05 | 98.2117 | 0.03286 | 5.4093 | 25.5433 | 139.7222 | 14.04852 | – |
| 2026 Apr 29 17:57 | 2026 Apr 23 14:01:44 | 98.2113 | 0.03293 | 4.9873 | 45.3739 | 139.7222 | 14.04852 | – |
| 2026 Apr 28 17:56 | 2026 Apr 23 14:01:44 | 98.2113 | 0.03293 | 4.9873 | 45.3739 | 139.7222 | 14.04852 | – |
| 2026 Apr 27 17:58 | 2026 Apr 23 14:01:44 | 98.2113 | 0.03293 | 4.9873 | 45.3739 | 139.7222 | 14.04852 | – |
| 2026 Apr 26 17:58 | 2026 Apr 23 14:01:44 | 98.2113 | 0.03293 | 4.9873 | 45.3739 | 139.7222 | 14.04852 | – |
| 2026 Apr 25 17:58 | 2026 Apr 23 14:01:44 | 98.2113 | 0.03293 | 4.9873 | 45.3739 | 139.7222 | 14.04852 | – |
| 2026 Apr 24 17:59 | 2026 Apr 23 14:01:44 | 98.2113 | 0.03293 | 4.9873 | 45.3739 | 139.7222 | 14.04852 | – |
| 2026 Apr 23 17:57 | 2026 Apr 19 04:19:59 | 98.2114 | 0.03294 | 4.7210 | 57.8626 | 139.7222 | 14.04852 | – |
| 2026 Apr 22 17:57 | 2026 Apr 19 04:19:59 | 98.2114 | 0.03294 | 4.7210 | 57.8626 | 139.7222 | 14.04852 | – |
| 2026 Apr 21 17:57 | 2026 Apr 19 04:19:59 | 98.2114 | 0.03294 | 4.7210 | 57.8626 | 139.7222 | 14.04852 | – |
| 2026 Apr 20 17:57 | 2026 Apr 19 04:19:59 | 98.2114 | 0.03294 | 4.7210 | 57.8626 | 139.7222 | 14.04852 | – |
| 2026 Apr 19 17:58 | 2026 Apr 19 04:19:59 | 98.2114 | 0.03294 | 4.7210 | 57.8626 | 139.7222 | 14.04852 | – |
| 2026 Apr 18 17:56 | 2026 Apr 12 03:05:49 | 98.2097 | 0.03291 | 4.2947 | 77.8946 | 139.7222 | 14.04852 | – |
| 2026 Apr 16 17:57 | 2026 Apr 12 03:05:49 | 98.2097 | 0.03291 | 4.2947 | 77.8946 | 139.7222 | 14.04852 | – |
| 2026 Apr 14 17:57 | 2026 Apr 12 03:05:49 | 98.2097 | 0.03291 | 4.2947 | 77.8946 | 139.7222 | 14.04852 | – |
| 2026 Apr 13 17:57 | 2026 Apr 12 03:05:49 | 98.2097 | 0.03291 | 4.2947 | 77.8946 | 139.7222 | 14.04852 | – |
| 2026 Apr 12 17:57 | 2026 Apr 08 03:21:26 | 98.2092 | 0.03291 | 4.0536 | 89.2265 | 139.7222 | 14.04852 | – |
| 2026 Apr 11 17:57 | 2026 Apr 08 03:21:26 | 98.2092 | 0.03291 | 4.0536 | 89.2265 | 139.7222 | 14.04852 | – |
| 2026 Apr 10 17:58 | 2026 Apr 08 03:21:26 | 98.2092 | 0.03291 | 4.0536 | 89.2265 | 139.7222 | 14.04852 | – |
| 2026 Apr 09 18:01 | 2026 Apr 08 03:21:26 | 98.2092 | 0.03291 | 4.0536 | 89.2265 | 139.7222 | 14.04852 | – |
| 2026 Apr 08 17:57 | 2026 Apr 08 03:21:26 | 98.2092 | 0.03291 | 4.0536 | 89.2265 | 139.7222 | 14.04852 | – |